createdAt,value
2022-09-21T00:00:04.737Z,970.32
2022-09-21T00:05:06.021Z,970.35
2022-09-21T00:10:08.132Z,970.26
2022-09-21T00:15:09.682Z,970.32
2022-09-21T00:20:11.170Z,970.36
2022-09-21T00:25:12.835Z,970.31
2022-09-21T00:30:14.461Z,970.28
2022-09-21T00:35:16.510Z,970.33
2022-09-21T00:40:18.243Z,970.34
2022-09-21T00:45:20.409Z,970.37
2022-09-21T00:50:21.578Z,970.39
2022-09-21T00:55:23.068Z,970.38
2022-09-21T01:00:25.147Z,970.36
2022-09-21T01:05:27.230Z,970.4
2022-09-21T01:10:28.700Z,970.38
2022-09-21T01:15:30.556Z,970.38
2022-09-21T01:15:36.884Z,970.36
2022-09-21T01:20:38.430Z,970.39
2022-09-21T01:25:39.604Z,970.37
2022-09-21T01:30:43.712Z,970.35
2022-09-21T01:35:43.621Z,970.34
2022-09-21T01:40:45.330Z,970.31
2022-09-21T01:45:47.480Z,970.37
2022-09-21T01:50:49.352Z,970.4
2022-09-21T01:55:50.814Z,970.36
2022-09-21T02:00:52.971Z,970.33
2022-09-21T02:05:54.658Z,970.34
2022-09-21T02:10:56.439Z,970.35
2022-09-21T02:15:58.332Z,970.3
2022-09-21T02:21:00.163Z,970.26
2022-09-21T02:26:02.099Z,970.31
2022-09-21T02:31:04.326Z,970.29
2022-09-21T02:36:05.602Z,970.31
2022-09-21T02:41:07.001Z,970.35
2022-09-21T02:46:09.135Z,970.44
2022-09-21T02:51:10.887Z,970.49
2022-09-21T02:56:12.312Z,970.5
2022-09-21T03:01:14.335Z,970.53
2022-09-21T03:06:15.609Z,970.51
2022-09-21T03:11:17.716Z,970.49
2022-09-21T03:16:19.450Z,970.49
2022-09-21T03:21:20.891Z,970.62
2022-09-21T03:26:22.738Z,970.55
2022-09-21T03:31:24.168Z,970.53
2022-09-21T03:36:25.675Z,970.55
2022-09-21T03:41:27.353Z,970.53
2022-09-21T03:46:29.603Z,970.53
2022-09-21T03:51:31.181Z,970.45
2022-09-21T03:56:32.990Z,970.49
2022-09-21T04:01:34.573Z,970.54
2022-09-21T04:06:36.523Z,970.6
2022-09-21T04:11:38.054Z,970.63
2022-09-21T04:16:39.755Z,970.65
2022-09-21T04:21:41.417Z,970.65
2022-09-21T04:26:43.560Z,970.7
2022-09-21T04:31:45.571Z,970.77
2022-09-21T04:36:46.867Z,970.75
2022-09-21T04:41:48.912Z,970.77
2022-09-21T04:46:50.065Z,970.82
2022-09-21T04:51:52.073Z,970.79
2022-09-21T04:56:53.486Z,970.91
2022-09-21T05:01:55.518Z,970.93
2022-09-21T05:06:57.500Z,971.04
2022-09-21T05:11:59.352Z,971
2022-09-21T05:17:01.209Z,971.07
2022-09-21T05:22:02.694Z,971.08
2022-09-21T05:27:04.133Z,971.1
2022-09-21T05:32:05.931Z,971.1
2022-09-21T05:37:07.750Z,971.14
2022-09-21T05:42:09.148Z,971.19
2022-09-21T05:47:10.460Z,971.15
2022-09-21T05:52:11.815Z,971.15
2022-09-21T05:57:13.940Z,971.21
2022-09-21T06:02:15.818Z,971.14
2022-09-21T06:07:17.928Z,971.21
2022-09-21T06:12:19.517Z,971.25
2022-09-21T06:17:21.329Z,971.26
2022-09-21T07:02:35.870Z,971.39
2022-09-21T07:12:39.112Z,971.31
2022-09-21T07:27:44.154Z,971.39
2022-09-21T07:32:45.553Z,971.4
2022-09-21T07:42:48.877Z,971.43
2022-09-21T07:47:50.551Z,971.45
2022-09-21T07:52:52.377Z,971.46
2022-09-21T07:57:54.218Z,971.44
2022-09-21T08:02:55.530Z,971.42
2022-09-21T08:07:57.245Z,971.43
2022-09-21T08:12:59.036Z,971.45
2022-09-21T08:18:01.290Z,971.46
2022-09-21T08:23:02.535Z,971.5
2022-09-21T08:28:08.943Z,971.5
2022-09-21T08:33:05.388Z,971.56
2022-09-21T08:38:06.863Z,971.55
2022-09-21T08:43:08.089Z,971.6
2022-09-21T08:48:09.515Z,971.63
2022-09-21T08:53:11.658Z,971.58
2022-09-21T08:58:13.243Z,971.66
2022-09-21T09:03:15.265Z,971.57
2022-09-21T09:08:16.490Z,971.55
2022-09-21T09:13:17.915Z,971.54
2022-09-21T09:18:19.695Z,971.46
2022-09-21T09:23:21.436Z,971.46
2022-09-21T09:28:22.815Z,971.48
2022-09-21T09:33:23.917Z,971.45
2022-09-21T09:38:25.225Z,971.47
2022-09-21T09:43:26.981Z,971.35
2022-09-21T09:48:28.291Z,971.26
2022-09-21T09:53:29.698Z,971.27
2022-09-21T09:58:31.572Z,971.2
2022-09-21T10:03:33.203Z,971.16
2022-09-21T10:08:34.787Z,971.17
2022-09-21T10:13:36.441Z,971.09
2022-09-21T10:18:38.563Z,971.08
2022-09-21T10:23:40.553Z,971.06
2022-09-21T10:28:42.067Z,971.01
2022-09-21T10:33:43.736Z,970.95
2022-09-21T10:38:45.192Z,970.95
2022-09-21T10:43:47.151Z,970.88
2022-09-21T10:48:49.345Z,970.89
2022-09-21T10:53:52.425Z,970.84
2022-09-21T10:58:52.775Z,970.81
2022-09-21T11:03:54.957Z,970.74
2022-09-21T11:08:56.120Z,970.76
2022-09-21T11:13:57.765Z,970.72
2022-09-21T11:18:59.048Z,970.68
2022-09-21T11:24:00.553Z,970.68
2022-09-21T11:29:02.291Z,970.58
2022-09-21T11:34:04.221Z,970.61
2022-09-21T11:39:05.589Z,970.59
2022-09-21T11:44:09.534Z,970.46
2022-09-21T11:49:09.386Z,970.49
2022-09-21T11:54:11.385Z,970.41
2022-09-21T11:59:12.685Z,970.4
2022-09-21T12:04:13.965Z,970.27
2022-09-21T12:09:15.496Z,970.26
2022-09-21T12:14:17.448Z,970.27
2022-09-21T12:19:19.317Z,970.24
2022-09-21T12:24:21.247Z,970.21
2022-09-21T12:29:22.760Z,970.2
2022-09-21T12:34:24.236Z,970.13
2022-09-21T12:39:25.742Z,970.12
2022-09-21T12:44:27.229Z,970.08
2022-09-21T12:49:29.241Z,970.07
2022-09-21T12:54:30.968Z,970.05
2022-09-21T12:59:32.447Z,970.04
2022-09-21T13:04:34.616Z,970
2022-09-21T13:09:35.939Z,970.05
2022-09-21T13:14:38.063Z,970.02
2022-09-21T13:19:40.031Z,969.98
2022-09-21T13:24:41.490Z,969.95
2022-09-21T13:29:43.533Z,969.97
2022-09-21T13:34:45.234Z,969.87
2022-09-21T13:39:47.127Z,969.85
2022-09-21T13:44:48.489Z,969.79
2022-09-21T13:49:50.345Z,969.74
2022-09-21T13:54:51.921Z,969.75
2022-09-21T13:59:53.662Z,969.75
2022-09-21T14:04:55.821Z,969.71
2022-09-21T14:09:57.184Z,969.66
2022-09-21T14:14:59.322Z,969.59
2022-09-21T14:20:01.230Z,969.6
2022-09-21T14:25:02.481Z,969.63
2022-09-21T14:30:06.572Z,969.67
2022-09-21T14:35:05.964Z,969.67
2022-09-21T14:40:07.425Z,969.65
2022-09-21T14:45:08.679Z,969.63
2022-09-21T14:50:14.463Z,969.56
2022-09-21T14:55:11.870Z,969.53
2022-09-21T15:00:13.521Z,969.54
2022-09-21T15:05:14.947Z,969.54
2022-09-21T15:10:16.592Z,969.49
2022-09-21T15:15:18.556Z,969.49
2022-09-21T15:20:20.048Z,969.43
2022-09-21T15:25:22.026Z,969.41
2022-09-21T15:30:23.311Z,969.4
2022-09-21T15:35:24.982Z,969.4
2022-09-21T15:40:26.917Z,969.41
2022-09-21T15:45:28.563Z,969.34
2022-09-21T15:50:30.703Z,969.37
2022-09-21T15:55:32.413Z,969.38
2022-09-21T16:00:34.484Z,969.38
2022-09-21T16:05:36.200Z,969.35
2022-09-21T16:10:37.596Z,969.4
2022-09-21T16:15:39.602Z,969.47
2022-09-21T16:20:41.286Z,969.47
2022-09-21T16:25:43.130Z,969.5
2022-09-21T16:30:44.554Z,969.57
2022-09-21T16:35:46.752Z,969.52
2022-09-21T16:40:48.477Z,969.57
2022-09-21T16:45:49.812Z,969.6
2022-09-21T16:50:51.064Z,969.59
2022-09-21T16:55:52.537Z,969.58
2022-09-21T17:00:56.045Z,969.65
2022-09-21T17:05:56.320Z,969.66
2022-09-21T17:10:57.781Z,969.65
2022-09-21T17:15:59.697Z,969.65
2022-09-21T17:21:01.240Z,969.65
2022-09-21T17:26:02.713Z,969.7
2022-09-21T17:31:04.853Z,969.66
2022-09-21T17:36:05.991Z,969.7
2022-09-21T17:41:07.401Z,969.71
2022-09-21T17:46:09.066Z,969.71
2022-09-21T17:51:10.926Z,969.8
2022-09-21T17:56:12.810Z,969.83
2022-09-21T18:01:14.284Z,969.86
2022-09-21T18:06:21.832Z,969.84
2022-09-21T18:11:23.483Z,969.95
2022-09-21T18:16:25.303Z,969.95
2022-09-21T18:21:27.299Z,969.99
2022-09-21T18:26:28.830Z,969.99
2022-09-21T18:31:30.925Z,969.99
2022-09-21T18:36:32.569Z,970.06
2022-09-21T18:41:34.670Z,970.09
2022-09-21T18:46:36.148Z,970.16
2022-09-21T18:51:37.461Z,970.18
2022-09-21T18:56:39.217Z,970.13
2022-09-21T19:01:41.194Z,970.18
2022-09-21T19:06:42.979Z,970.12
2022-09-21T19:11:44.566Z,970.1
2022-09-21T19:16:46.448Z,970.14
2022-09-21T19:21:47.869Z,970.16
2022-09-21T19:26:49.410Z,970.18
2022-09-21T19:31:51.520Z,970.26
2022-09-21T19:36:52.745Z,970.24
2022-09-21T19:41:54.588Z,970.25
2022-09-21T19:46:56.705Z,970.27
2022-09-21T19:51:58.028Z,970.27
2022-09-21T19:56:59.343Z,970.29
2022-09-21T20:02:00.876Z,970.26
2022-09-21T20:07:02.134Z,970.23
2022-09-21T20:12:03.570Z,970.18
2022-09-21T20:17:05.189Z,970.18
2022-09-21T20:22:07.115Z,970.13
2022-09-21T20:27:08.436Z,970.11
2022-09-21T20:32:09.825Z,970.17
2022-09-21T20:37:11.035Z,970.21
2022-09-21T20:42:12.565Z,970.31
2022-09-21T20:47:14.023Z,970.25
2022-09-21T20:52:15.410Z,970.24
2022-09-21T20:57:17.303Z,970.26
2022-09-21T21:02:18.804Z,970.28
2022-09-21T21:07:20.766Z,970.27
2022-09-21T21:37:31.277Z,970.13
2022-09-21T21:47:39.559Z,970.07
2022-09-21T22:12:42.842Z,970.16
2022-09-21T22:27:47.975Z,970.21
2022-09-21T22:32:49.187Z,970.15
2022-09-21T22:37:50.657Z,970.06
2022-09-21T22:42:52.776Z,970.02
2022-09-21T22:47:54.808Z,970.02
2022-09-21T22:52:56.208Z,970
2022-09-21T22:57:57.775Z,969.97
2022-09-21T23:02:59.321Z,970.05
2022-09-21T23:08:01.214Z,970
2022-09-21T23:13:03.393Z,969.95
2022-09-21T23:18:04.858Z,969.96
2022-09-21T23:23:06.886Z,969.9
2022-09-21T23:28:09.047Z,969.94
2022-09-21T23:33:10.954Z,969.92
2022-09-21T23:38:12.518Z,969.84
2022-09-21T23:43:14.687Z,969.83
2022-09-21T23:48:16.216Z,969.73
2022-09-21T23:53:17.532Z,969.76
2022-09-21T23:58:19.296Z,969.76
